sensor_id;sensor_type;location;lat;lon;timestamp;P1;durP1;ratioP1;P2;durP2;ratioP2
30301;SDS011;17111;52.130;5.028;2023-03-07T00:00:44;13.07;;;7.85;;
30301;SDS011;17111;52.130;5.028;2023-03-07T00:03:11;15.38;;;8.20;;
30301;SDS011;17111;52.130;5.028;2023-03-07T00:05:39;13.35;;;8.05;;
30301;SDS011;17111;52.130;5.028;2023-03-07T00:08:06;14.20;;;8.00;;
30301;SDS011;17111;52.130;5.028;2023-03-07T00:10:33;12.90;;;7.25;;
30301;SDS011;17111;52.130;5.028;2023-03-07T00:13:00;12.85;;;7.57;;
30301;SDS011;17111;52.130;5.028;2023-03-07T00:15:26;13.50;;;7.95;;
30301;SDS011;17111;52.130;5.028;2023-03-07T00:17:53;11.82;;;6.65;;
30301;SDS011;17111;52.130;5.028;2023-03-07T00:20:19;13.20;;;7.50;;
30301;SDS011;17111;52.130;5.028;2023-03-07T00:22:46;13.55;;;7.72;;
30301;SDS011;17111;52.130;5.028;2023-03-07T00:25:13;13.60;;;7.05;;
30301;SDS011;17111;52.130;5.028;2023-03-07T00:27:40;13.70;;;8.18;;
30301;SDS011;17111;52.130;5.028;2023-03-07T00:30:07;13.23;;;7.30;;
30301;SDS011;17111;52.130;5.028;2023-03-07T00:32:35;13.48;;;7.57;;
30301;SDS011;17111;52.130;5.028;2023-03-07T00:35:01;12.05;;;7.32;;
30301;SDS011;17111;52.130;5.028;2023-03-07T00:37:28;10.55;;;6.70;;
30301;SDS011;17111;52.130;5.028;2023-03-07T00:39:55;10.95;;;6.53;;
30301;SDS011;17111;52.130;5.028;2023-03-07T00:42:22;10.07;;;6.15;;
30301;SDS011;17111;52.130;5.028;2023-03-07T00:44:49;12.07;;;6.40;;
30301;SDS011;17111;52.130;5.028;2023-03-07T00:47:15;10.30;;;6.18;;
30301;SDS011;17111;52.130;5.028;2023-03-07T00:49:42;10.05;;;6.35;;
30301;SDS011;17111;52.130;5.028;2023-03-07T00:52:08;11.13;;;6.10;;
30301;SDS011;17111;52.130;5.028;2023-03-07T00:54:35;11.48;;;6.45;;
30301;SDS011;17111;52.130;5.028;2023-03-07T00:57:01;12.32;;;6.75;;
30301;SDS011;17111;52.130;5.028;2023-03-07T00:59:28;11.75;;;6.07;;
30301;SDS011;17111;52.130;5.028;2023-03-07T01:01:55;9.95;;;6.15;;
30301;SDS011;17111;52.130;5.028;2023-03-07T01:04:21;13.75;;;6.18;;
30301;SDS011;17111;52.130;5.028;2023-03-07T01:06:48;9.25;;;5.25;;
30301;SDS011;17111;52.130;5.028;2023-03-07T01:09:15;10.30;;;5.68;;
30301;SDS011;17111;52.130;5.028;2023-03-07T01:11:42;8.68;;;5.45;;
30301;SDS011;17111;52.130;5.028;2023-03-07T01:14:08;10.32;;;5.85;;
30301;SDS011;17111;52.130;5.028;2023-03-07T01:16:36;10.75;;;5.22;;
30301;SDS011;17111;52.130;5.028;2023-03-07T01:19:04;10.20;;;5.88;;
30301;SDS011;17111;52.130;5.028;2023-03-07T01:21:33;7.75;;;5.00;;
30301;SDS011;17111;52.130;5.028;2023-03-07T01:24:05;8.10;;;5.10;;
30301;SDS011;17111;52.130;5.028;2023-03-07T01:26:33;8.60;;;4.75;;
30301;SDS011;17111;52.130;5.028;2023-03-07T01:29:01;9.32;;;5.20;;
30301;SDS011;17111;52.130;5.028;2023-03-07T01:31:28;8.98;;;5.32;;
30301;SDS011;17111;52.130;5.028;2023-03-07T01:33:58;9.10;;;4.78;;
30301;SDS011;17111;52.130;5.028;2023-03-07T01:36:28;8.93;;;5.07;;
30301;SDS011;17111;52.130;5.028;2023-03-07T01:38:57;10.38;;;5.22;;
30301;SDS011;17111;52.130;5.028;2023-03-07T01:41:28;9.02;;;4.43;;
30301;SDS011;17111;52.130;5.028;2023-03-07T01:43:58;9.43;;;5.30;;
30301;SDS011;17111;52.130;5.028;2023-03-07T01:46:45;6.85;;;4.28;;
30301;SDS011;17111;52.130;5.028;2023-03-07T01:51:57;7.53;;;4.60;;
30301;SDS011;17111;52.130;5.028;2023-03-07T01:54:28;7.80;;;4.73;;
30301;SDS011;17111;52.130;5.028;2023-03-07T01:56:57;5.93;;;4.03;;
30301;SDS011;17111;52.130;5.028;2023-03-07T01:59:28;6.75;;;4.10;;
30301;SDS011;17111;52.130;5.028;2023-03-07T02:01:58;8.27;;;4.45;;
30301;SDS011;17111;52.130;5.028;2023-03-07T02:07:20;7.20;;;3.85;;
30301;SDS011;17111;52.130;5.028;2023-03-07T02:09:49;5.90;;;3.78;;
30301;SDS011;17111;52.130;5.028;2023-03-07T02:12:18;6.35;;;3.97;;
30301;SDS011;17111;52.130;5.028;2023-03-07T02:14:47;7.97;;;4.25;;
30301;SDS011;17111;52.130;5.028;2023-03-07T02:17:15;5.72;;;3.53;;
30301;SDS011;17111;52.130;5.028;2023-03-07T02:22:30;6.43;;;3.78;;
30301;SDS011;17111;52.130;5.028;2023-03-07T02:24:58;7.10;;;3.83;;
30301;SDS011;17111;52.130;5.028;2023-03-07T02:27:29;6.82;;;3.83;;
30301;SDS011;17111;52.130;5.028;2023-03-07T02:29:59;8.15;;;3.72;;
30301;SDS011;17111;52.130;5.028;2023-03-07T02:32:25;7.28;;;3.47;;
30301;SDS011;17111;52.130;5.028;2023-03-07T02:34:52;6.40;;;3.83;;
30301;SDS011;17111;52.130;5.028;2023-03-07T02:37:20;6.00;;;3.65;;
30301;SDS011;17111;52.130;5.028;2023-03-07T02:39:57;6.55;;;3.60;;
30301;SDS011;17111;52.130;5.028;2023-03-07T02:42:30;7.15;;;3.78;;
30301;SDS011;17111;52.130;5.028;2023-03-07T02:45:02;5.75;;;3.25;;
30301;SDS011;17111;52.130;5.028;2023-03-07T02:47:30;6.05;;;3.70;;
30301;SDS011;17111;52.130;5.028;2023-03-07T02:49:57;4.93;;;3.00;;
30301;SDS011;17111;52.130;5.028;2023-03-07T02:52:23;5.30;;;3.00;;
30301;SDS011;17111;52.130;5.028;2023-03-07T02:54:53;4.88;;;3.13;;
30301;SDS011;17111;52.130;5.028;2023-03-07T02:57:20;5.95;;;3.35;;
30301;SDS011;17111;52.130;5.028;2023-03-07T02:59:46;5.57;;;3.15;;
30301;SDS011;17111;52.130;5.028;2023-03-07T03:02:13;5.40;;;3.17;;
30301;SDS011;17111;52.130;5.028;2023-03-07T03:04:39;5.07;;;2.67;;
30301;SDS011;17111;52.130;5.028;2023-03-07T03:07:06;6.43;;;3.17;;
30301;SDS011;17111;52.130;5.028;2023-03-07T03:09:33;4.70;;;2.85;;
30301;SDS011;17111;52.130;5.028;2023-03-07T03:11:59;5.45;;;3.22;;
30301;SDS011;17111;52.130;5.028;2023-03-07T03:14:26;5.13;;;3.05;;
30301;SDS011;17111;52.130;5.028;2023-03-07T03:16:53;6.82;;;3.10;;
30301;SDS011;17111;52.130;5.028;2023-03-07T03:19:19;5.40;;;3.00;;
30301;SDS011;17111;52.130;5.028;2023-03-07T03:21:46;5.63;;;2.65;;
30301;SDS011;17111;52.130;5.028;2023-03-07T03:24:13;4.75;;;3.15;;
30301;SDS011;17111;52.130;5.028;2023-03-07T03:26:40;4.85;;;2.70;;
30301;SDS011;17111;52.130;5.028;2023-03-07T03:29:06;4.88;;;2.78;;
30301;SDS011;17111;52.130;5.028;2023-03-07T03:31:33;4.68;;;2.85;;
30301;SDS011;17111;52.130;5.028;2023-03-07T03:34:00;5.07;;;3.13;;
30301;SDS011;17111;52.130;5.028;2023-03-07T03:36:27;4.53;;;2.80;;
30301;SDS011;17111;52.130;5.028;2023-03-07T03:38:54;5.45;;;2.75;;
30301;SDS011;17111;52.130;5.028;2023-03-07T03:41:22;4.18;;;2.70;;
30301;SDS011;17111;52.130;5.028;2023-03-07T03:43:50;3.90;;;2.60;;
30301;SDS011;17111;52.130;5.028;2023-03-07T03:46:17;4.03;;;2.63;;
30301;SDS011;17111;52.130;5.028;2023-03-07T03:48:51;5.03;;;2.50;;
30301;SDS011;17111;52.130;5.028;2023-03-07T03:51:19;3.28;;;2.55;;
30301;SDS011;17111;52.130;5.028;2023-03-07T03:53:46;3.25;;;2.20;;
30301;SDS011;17111;52.130;5.028;2023-03-07T03:56:16;3.97;;;2.33;;
30301;SDS011;17111;52.130;5.028;2023-03-07T03:58:47;5.25;;;2.60;;
30301;SDS011;17111;52.130;5.028;2023-03-07T04:01:15;3.67;;;2.05;;
30301;SDS011;17111;52.130;5.028;2023-03-07T04:03:46;3.85;;;2.47;;
30301;SDS011;17111;52.130;5.028;2023-03-07T04:06:15;5.28;;;2.40;;
30301;SDS011;17111;52.130;5.028;2023-03-07T04:08:44;4.68;;;2.63;;
30301;SDS011;17111;52.130;5.028;2023-03-07T04:11:14;5.85;;;2.47;;
30301;SDS011;17111;52.130;5.028;2023-03-07T04:13:40;3.47;;;2.35;;
30301;SDS011;17111;52.130;5.028;2023-03-07T04:16:07;4.35;;;2.10;;
30301;SDS011;17111;52.130;5.028;2023-03-07T04:18:34;4.15;;;2.60;;
30301;SDS011;17111;52.130;5.028;2023-03-07T04:21:01;4.10;;;2.15;;
30301;SDS011;17111;52.130;5.028;2023-03-07T04:23:30;3.63;;;1.98;;
30301;SDS011;17111;52.130;5.028;2023-03-07T04:25:58;3.58;;;2.05;;
30301;SDS011;17111;52.130;5.028;2023-03-07T04:28:27;3.22;;;2.08;;
30301;SDS011;17111;52.130;5.028;2023-03-07T04:31:11;3.17;;;2.03;;
30301;SDS011;17111;52.130;5.028;2023-03-07T04:33:43;6.30;;;2.22;;
30301;SDS011;17111;52.130;5.028;2023-03-07T04:36:10;4.95;;;2.53;;
30301;SDS011;17111;52.130;5.028;2023-03-07T04:38:38;4.07;;;2.53;;
30301;SDS011;17111;52.130;5.028;2023-03-07T04:41:05;2.28;;;1.73;;
30301;SDS011;17111;52.130;5.028;2023-03-07T04:43:32;3.35;;;1.90;;
30301;SDS011;17111;52.130;5.028;2023-03-07T04:45:59;3.80;;;2.17;;
30301;SDS011;17111;52.130;5.028;2023-03-07T04:48:26;3.10;;;1.92;;
30301;SDS011;17111;52.130;5.028;2023-03-07T04:50:52;3.17;;;1.88;;
30301;SDS011;17111;52.130;5.028;2023-03-07T04:53:19;5.78;;;1.83;;
30301;SDS011;17111;52.130;5.028;2023-03-07T04:55:46;2.53;;;1.67;;
30301;SDS011;17111;52.130;5.028;2023-03-07T04:58:12;4.70;;;1.98;;
30301;SDS011;17111;52.130;5.028;2023-03-07T05:00:43;3.35;;;2.10;;
30301;SDS011;17111;52.130;5.028;2023-03-07T05:03:11;4.05;;;1.80;;
30301;SDS011;17111;52.130;5.028;2023-03-07T05:05:38;2.92;;;1.65;;
30301;SDS011;17111;52.130;5.028;2023-03-07T05:08:05;3.50;;;1.48;;
30301;SDS011;17111;52.130;5.028;2023-03-07T05:10:32;5.40;;;1.80;;
30301;SDS011;17111;52.130;5.028;2023-03-07T05:12:59;3.00;;;1.55;;
30301;SDS011;17111;52.130;5.028;2023-03-07T05:15:26;3.50;;;1.90;;
30301;SDS011;17111;52.130;5.028;2023-03-07T05:17:53;5.35;;;2.00;;
30301;SDS011;17111;52.130;5.028;2023-03-07T05:20:19;2.65;;;1.40;;
30301;SDS011;17111;52.130;5.028;2023-03-07T05:22:47;3.35;;;1.63;;
30301;SDS011;17111;52.130;5.028;2023-03-07T05:25:13;3.95;;;1.88;;
30301;SDS011;17111;52.130;5.028;2023-03-07T05:27:40;4.75;;;2.22;;
30301;SDS011;17111;52.130;5.028;2023-03-07T05:30:07;4.13;;;2.25;;
30301;SDS011;17111;52.130;5.028;2023-03-07T05:32:34;4.40;;;2.50;;
30301;SDS011;17111;52.130;5.028;2023-03-07T05:35:01;6.18;;;2.47;;
30301;SDS011;17111;52.130;5.028;2023-03-07T05:37:28;5.13;;;2.78;;
30301;SDS011;17111;52.130;5.028;2023-03-07T05:39:54;6.38;;;2.70;;
30301;SDS011;17111;52.130;5.028;2023-03-07T05:42:21;6.50;;;2.72;;
30301;SDS011;17111;52.130;5.028;2023-03-07T05:44:47;4.95;;;2.97;;
30301;SDS011;17111;52.130;5.028;2023-03-07T05:47:14;4.45;;;2.72;;
30301;SDS011;17111;52.130;5.028;2023-03-07T05:49:40;6.22;;;3.20;;
30301;SDS011;17111;52.130;5.028;2023-03-07T05:52:07;7.15;;;3.38;;
30301;SDS011;17111;52.130;5.028;2023-03-07T05:54:33;7.75;;;3.55;;
30301;SDS011;17111;52.130;5.028;2023-03-07T05:57:00;5.95;;;3.15;;
30301;SDS011;17111;52.130;5.028;2023-03-07T05:59:26;6.85;;;3.33;;
30301;SDS011;17111;52.130;5.028;2023-03-07T06:01:53;5.88;;;3.25;;
30301;SDS011;17111;52.130;5.028;2023-03-07T06:04:19;6.30;;;3.35;;
30301;SDS011;17111;52.130;5.028;2023-03-07T06:06:46;6.13;;;3.15;;
30301;SDS011;17111;52.130;5.028;2023-03-07T06:09:12;8.10;;;3.53;;
30301;SDS011;17111;52.130;5.028;2023-03-07T06:11:39;6.82;;;3.72;;
30301;SDS011;17111;52.130;5.028;2023-03-07T06:14:05;7.95;;;3.70;;
30301;SDS011;17111;52.130;5.028;2023-03-07T06:16:32;8.45;;;3.95;;
30301;SDS011;17111;52.130;5.028;2023-03-07T06:18:58;7.05;;;3.85;;
30301;SDS011;17111;52.130;5.028;2023-03-07T06:21:25;7.75;;;3.63;;
30301;SDS011;17111;52.130;5.028;2023-03-07T06:23:51;7.53;;;4.05;;
30301;SDS011;17111;52.130;5.028;2023-03-07T06:26:18;7.53;;;3.47;;
30301;SDS011;17111;52.130;5.028;2023-03-07T06:28:45;6.80;;;3.67;;
30301;SDS011;17111;52.130;5.028;2023-03-07T06:31:12;6.50;;;3.65;;
30301;SDS011;17111;52.130;5.028;2023-03-07T06:33:41;6.90;;;3.70;;
30301;SDS011;17111;52.130;5.028;2023-03-07T06:36:10;6.07;;;3.70;;
30301;SDS011;17111;52.130;5.028;2023-03-07T06:38:38;7.22;;;3.97;;
30301;SDS011;17111;52.130;5.028;2023-03-07T06:41:05;9.60;;;3.78;;
30301;SDS011;17111;52.130;5.028;2023-03-07T06:43:32;7.45;;;3.90;;
30301;SDS011;17111;52.130;5.028;2023-03-07T06:45:59;8.95;;;3.95;;
30301;SDS011;17111;52.130;5.028;2023-03-07T06:48:26;5.90;;;3.40;;
30301;SDS011;17111;52.130;5.028;2023-03-07T06:50:52;6.20;;;3.92;;
30301;SDS011;17111;52.130;5.028;2023-03-07T06:53:19;6.72;;;3.30;;
30301;SDS011;17111;52.130;5.028;2023-03-07T06:55:49;7.10;;;3.67;;
30301;SDS011;17111;52.130;5.028;2023-03-07T06:58:17;5.50;;;3.40;;
30301;SDS011;17111;52.130;5.028;2023-03-07T07:00:44;9.60;;;3.63;;
30301;SDS011;17111;52.130;5.028;2023-03-07T07:03:11;8.63;;;3.33;;
30301;SDS011;17111;52.130;5.028;2023-03-07T07:05:39;6.13;;;3.28;;
30301;SDS011;17111;52.130;5.028;2023-03-07T07:08:05;6.28;;;3.10;;
30301;SDS011;17111;52.130;5.028;2023-03-07T07:10:33;4.80;;;3.00;;
30301;SDS011;17111;52.130;5.028;2023-03-07T07:13:00;6.10;;;3.47;;
30301;SDS011;17111;52.130;5.028;2023-03-07T07:15:26;6.25;;;3.47;;
30301;SDS011;17111;52.130;5.028;2023-03-07T07:17:53;6.93;;;4.10;;
30301;SDS011;17111;52.130;5.028;2023-03-07T07:20:19;5.13;;;2.90;;
30301;SDS011;17111;52.130;5.028;2023-03-07T07:22:46;6.18;;;3.13;;
30301;SDS011;17111;52.130;5.028;2023-03-07T07:25:13;6.85;;;3.20;;
30301;SDS011;17111;52.130;5.028;2023-03-07T07:27:39;8.18;;;2.83;;
30301;SDS011;17111;52.130;5.028;2023-03-07T07:30:06;7.43;;;3.13;;
30301;SDS011;17111;52.130;5.028;2023-03-07T07:32:33;5.85;;;2.90;;
30301;SDS011;17111;52.130;5.028;2023-03-07T07:35:01;6.25;;;2.75;;
30301;SDS011;17111;52.130;5.028;2023-03-07T07:37:27;7.53;;;2.50;;
30301;SDS011;17111;52.130;5.028;2023-03-07T07:39:54;7.43;;;3.13;;
30301;SDS011;17111;52.130;5.028;2023-03-07T07:42:20;6.05;;;3.22;;
30301;SDS011;17111;52.130;5.028;2023-03-07T07:44:47;5.70;;;3.08;;
30301;SDS011;17111;52.130;5.028;2023-03-07T07:47:14;6.55;;;2.95;;
30301;SDS011;17111;52.130;5.028;2023-03-07T07:49:40;9.40;;;2.90;;
30301;SDS011;17111;52.130;5.028;2023-03-07T07:52:07;5.97;;;2.65;;
30301;SDS011;17111;52.130;5.028;2023-03-07T07:54:33;6.38;;;2.95;;
30301;SDS011;17111;52.130;5.028;2023-03-07T07:57:00;7.90;;;2.83;;
30301;SDS011;17111;52.130;5.028;2023-03-07T07:59:26;8.35;;;2.95;;
30301;SDS011;17111;52.130;5.028;2023-03-07T08:01:53;8.75;;;3.40;;
30301;SDS011;17111;52.130;5.028;2023-03-07T08:04:19;15.30;;;3.28;;
30301;SDS011;17111;52.130;5.028;2023-03-07T08:06:46;8.60;;;2.85;;
30301;SDS011;17111;52.130;5.028;2023-03-07T08:09:12;7.43;;;2.88;;
30301;SDS011;17111;52.130;5.028;2023-03-07T08:11:39;10.48;;;3.00;;
30301;SDS011;17111;52.130;5.028;2023-03-07T08:14:06;7.47;;;2.47;;
30301;SDS011;17111;52.130;5.028;2023-03-07T08:16:33;9.05;;;3.20;;
30301;SDS011;17111;52.130;5.028;2023-03-07T08:18:59;8.20;;;3.05;;
30301;SDS011;17111;52.130;5.028;2023-03-07T08:21:26;8.02;;;3.00;;
30301;SDS011;17111;52.130;5.028;2023-03-07T08:23:53;6.10;;;3.00;;
30301;SDS011;17111;52.130;5.028;2023-03-07T08:26:20;6.88;;;2.88;;
30301;SDS011;17111;52.130;5.028;2023-03-07T08:28:47;6.25;;;2.85;;
30301;SDS011;17111;52.130;5.028;2023-03-07T08:31:18;5.25;;;2.53;;
30301;SDS011;17111;52.130;5.028;2023-03-07T08:33:48;9.10;;;3.47;;
30301;SDS011;17111;52.130;5.028;2023-03-07T08:36:16;6.40;;;2.90;;
30301;SDS011;17111;52.130;5.028;2023-03-07T08:38:46;6.18;;;3.15;;
30301;SDS011;17111;52.130;5.028;2023-03-07T08:41:16;7.78;;;2.83;;
30301;SDS011;17111;52.130;5.028;2023-03-07T08:43:43;6.25;;;2.60;;
30301;SDS011;17111;52.130;5.028;2023-03-07T08:46:10;4.03;;;2.28;;
30301;SDS011;17111;52.130;5.028;2023-03-07T08:48:37;5.15;;;2.35;;
30301;SDS011;17111;52.130;5.028;2023-03-07T08:51:10;4.32;;;2.20;;
30301;SDS011;17111;52.130;5.028;2023-03-07T08:53:40;4.57;;;2.25;;
30301;SDS011;17111;52.130;5.028;2023-03-07T08:56:09;5.03;;;2.35;;
30301;SDS011;17111;52.130;5.028;2023-03-07T08:58:37;6.13;;;2.60;;
30301;SDS011;17111;52.130;5.028;2023-03-07T09:01:04;5.55;;;2.45;;
30301;SDS011;17111;52.130;5.028;2023-03-07T09:03:31;4.85;;;2.20;;
30301;SDS011;17111;52.130;5.028;2023-03-07T09:05:58;4.30;;;2.30;;
30301;SDS011;17111;52.130;5.028;2023-03-07T09:08:24;5.95;;;2.42;;
30301;SDS011;17111;52.130;5.028;2023-03-07T09:10:51;6.20;;;2.45;;
30301;SDS011;17111;52.130;5.028;2023-03-07T09:13:18;5.78;;;2.13;;
30301;SDS011;17111;52.130;5.028;2023-03-07T09:15:45;4.00;;;1.88;;
30301;SDS011;17111;52.130;5.028;2023-03-07T09:18:11;3.42;;;1.95;;
30301;SDS011;17111;52.130;5.028;2023-03-07T09:20:38;6.57;;;2.17;;
30301;SDS011;17111;52.130;5.028;2023-03-07T09:23:05;8.73;;;2.28;;
30301;SDS011;17111;52.130;5.028;2023-03-07T09:25:33;4.88;;;2.13;;
30301;SDS011;17111;52.130;5.028;2023-03-07T09:28:02;4.90;;;2.20;;
30301;SDS011;17111;52.130;5.028;2023-03-07T09:30:29;5.10;;;1.85;;
30301;SDS011;17111;52.130;5.028;2023-03-07T09:32:56;5.47;;;1.92;;
30301;SDS011;17111;52.130;5.028;2023-03-07T09:35:22;4.30;;;2.17;;
30301;SDS011;17111;52.130;5.028;2023-03-07T09:37:49;3.97;;;2.05;;
30301;SDS011;17111;52.130;5.028;2023-03-07T09:40:20;4.95;;;2.10;;
30301;SDS011;17111;52.130;5.028;2023-03-07T09:43:05;3.67;;;1.80;;
30301;SDS011;17111;52.130;5.028;2023-03-07T09:48:25;3.50;;;2.03;;
30301;SDS011;17111;52.130;5.028;2023-03-07T09:54:07;4.30;;;2.03;;
30301;SDS011;17111;52.130;5.028;2023-03-07T10:07:57;3.85;;;1.42;;
30301;SDS011;17111;52.130;5.028;2023-03-07T10:10:35;3.22;;;1.70;;
30301;SDS011;17111;52.130;5.028;2023-03-07T10:13:21;2.78;;;1.65;;
30301;SDS011;17111;52.130;5.028;2023-03-07T10:18:55;3.45;;;1.50;;
30301;SDS011;17111;52.130;5.028;2023-03-07T10:21:38;5.88;;;1.92;;
30301;SDS011;17111;52.130;5.028;2023-03-07T10:26:56;3.92;;;1.58;;
30301;SDS011;17111;52.130;5.028;2023-03-07T10:29:30;3.70;;;1.40;;
30301;SDS011;17111;52.130;5.028;2023-03-07T10:37:49;2.90;;;1.33;;
30301;SDS011;17111;52.130;5.028;2023-03-07T10:42:57;3.00;;;1.30;;
30301;SDS011;17111;52.130;5.028;2023-03-07T10:45:31;2.17;;;1.10;;
30301;SDS011;17111;52.130;5.028;2023-03-07T10:50:40;2.25;;;1.27;;
30301;SDS011;17111;52.130;5.028;2023-03-07T10:53:20;2.67;;;1.13;;
30301;SDS011;17111;52.130;5.028;2023-03-07T10:55:51;3.28;;;1.10;;
30301;SDS011;17111;52.130;5.028;2023-03-07T10:58:19;3.65;;;1.52;;
30301;SDS011;17111;52.130;5.028;2023-03-07T11:03:27;2.55;;;1.13;;
30301;SDS011;17111;52.130;5.028;2023-03-07T11:06:24;1.92;;;1.20;;
30301;SDS011;17111;52.130;5.028;2023-03-07T11:08:53;2.65;;;1.27;;
30301;SDS011;17111;52.130;5.028;2023-03-07T11:11:22;2.03;;;1.20;;
30301;SDS011;17111;52.130;5.028;2023-03-07T11:14:24;1.92;;;1.25;;
30301;SDS011;17111;52.130;5.028;2023-03-07T11:22:48;2.30;;;1.33;;
30301;SDS011;17111;52.130;5.028;2023-03-07T11:30:04;1.67;;;1.20;;
30301;SDS011;17111;52.130;5.028;2023-03-07T11:32:34;1.73;;;1.10;;
30301;SDS011;17111;52.130;5.028;2023-03-07T11:35:05;1.52;;;1.00;;
30301;SDS011;17111;52.130;5.028;2023-03-07T11:37:38;2.13;;;0.90;;
30301;SDS011;17111;52.130;5.028;2023-03-07T11:40:27;2.45;;;1.10;;
30301;SDS011;17111;52.130;5.028;2023-03-07T11:48:51;1.83;;;1.10;;
30301;SDS011;17111;52.130;5.028;2023-03-07T11:51:30;2.13;;;0.85;;
30301;SDS011;17111;52.130;5.028;2023-03-07T11:54:56;1.60;;;0.85;;
30301;SDS011;17111;52.130;5.028;2023-03-07T11:57:15;2.00;;;0.93;;
30301;SDS011;17111;52.130;5.028;2023-03-07T11:59:59;2.95;;;0.80;;
30301;SDS011;17111;52.130;5.028;2023-03-07T12:05:31;1.85;;;0.85;;
30301;SDS011;17111;52.130;5.028;2023-03-07T12:08:26;1.48;;;1.00;;
30301;SDS011;17111;52.130;5.028;2023-03-07T12:11:04;2.25;;;0.98;;
30301;SDS011;17111;52.130;5.028;2023-03-07T12:19:31;1.60;;;1.00;;
30301;SDS011;17111;52.130;5.028;2023-03-07T12:27:40;1.20;;;0.70;;
30301;SDS011;17111;52.130;5.028;2023-03-07T12:30:14;0.98;;;0.60;;
30301;SDS011;17111;52.130;5.028;2023-03-07T12:32:45;1.95;;;0.82;;
30301;SDS011;17111;52.130;5.028;2023-03-07T12:35:17;2.22;;;1.00;;
30301;SDS011;17111;52.130;5.028;2023-03-07T12:37:54;2.05;;;0.80;;
30301;SDS011;17111;52.130;5.028;2023-03-07T12:40:28;2.53;;;1.05;;
30301;SDS011;17111;52.130;5.028;2023-03-07T12:43:07;1.60;;;0.85;;
30301;SDS011;17111;52.130;5.028;2023-03-07T12:45:49;1.30;;;0.70;;
30301;SDS011;17111;52.130;5.028;2023-03-07T12:51:26;1.35;;;0.85;;
30301;SDS011;17111;52.130;5.028;2023-03-07T12:54:08;1.63;;;0.82;;
30301;SDS011;17111;52.130;5.028;2023-03-07T12:59:25;1.85;;;0.98;;
30301;SDS011;17111;52.130;5.028;2023-03-07T13:02:05;1.77;;;0.75;;
30301;SDS011;17111;52.130;5.028;2023-03-07T13:04:41;1.40;;;0.98;;
30301;SDS011;17111;52.130;5.028;2023-03-07T13:09:37;1.50;;;0.93;;
30301;SDS011;17111;52.130;5.028;2023-03-07T13:14:42;2.55;;;0.77;;
30301;SDS011;17111;52.130;5.028;2023-03-07T13:17:12;2.10;;;0.73;;
30301;SDS011;17111;52.130;5.028;2023-03-07T13:27:46;0.90;;;0.80;;
30301;SDS011;17111;52.130;5.028;2023-03-07T13:30:23;1.48;;;0.77;;
30301;SDS011;17111;52.130;5.028;2023-03-07T13:35:55;2.00;;;0.80;;
30301;SDS011;17111;52.130;5.028;2023-03-07T13:38:29;1.25;;;0.70;;
30301;SDS011;17111;52.130;5.028;2023-03-07T13:41:09;1.40;;;0.68;;
30301;SDS011;17111;52.130;5.028;2023-03-07T13:46:27;0.88;;;0.60;;
30301;SDS011;17111;52.130;5.028;2023-03-07T13:48:57;1.17;;;1.02;;
30301;SDS011;17111;52.130;5.028;2023-03-07T13:51:24;1.38;;;0.73;;
30301;SDS011;17111;52.130;5.028;2023-03-07T13:53:58;2.08;;;0.93;;
30301;SDS011;17111;52.130;5.028;2023-03-07T13:56:28;1.58;;;0.70;;
30301;SDS011;17111;52.130;5.028;2023-03-07T14:07:14;0.80;;;0.57;;
30301;SDS011;17111;52.130;5.028;2023-03-07T14:09:54;1.48;;;0.70;;
30301;SDS011;17111;52.130;5.028;2023-03-07T14:15:26;2.42;;;0.73;;
30301;SDS011;17111;52.130;5.028;2023-03-07T14:18:20;1.08;;;0.68;;
30301;SDS011;17111;52.130;5.028;2023-03-07T14:26:55;0.80;;;0.50;;
30301;SDS011;17111;52.130;5.028;2023-03-07T14:29:24;0.80;;;0.73;;
30301;SDS011;17111;52.130;5.028;2023-03-07T14:31:53;0.60;;;0.55;;
30301;SDS011;17111;52.130;5.028;2023-03-07T14:39:22;1.17;;;0.68;;
30301;SDS011;17111;52.130;5.028;2023-03-07T14:47:13;1.15;;;0.63;;
30301;SDS011;17111;52.130;5.028;2023-03-07T14:52:38;0.93;;;0.47;;
30301;SDS011;17111;52.130;5.028;2023-03-07T14:55:05;1.10;;;0.68;;
30301;SDS011;17111;52.130;5.028;2023-03-07T15:02:54;0.77;;;0.50;;
30301;SDS011;17111;52.130;5.028;2023-03-07T15:05:24;0.88;;;0.57;;
30301;SDS011;17111;52.130;5.028;2023-03-07T15:07:53;0.88;;;0.50;;
30301;SDS011;17111;52.130;5.028;2023-03-07T15:10:22;0.70;;;0.60;;
30301;SDS011;17111;52.130;5.028;2023-03-07T15:12:55;0.60;;;0.60;;
30301;SDS011;17111;52.130;5.028;2023-03-07T15:15:24;2.38;;;0.60;;
30301;SDS011;17111;52.130;5.028;2023-03-07T15:20:49;0.52;;;0.38;;
30301;SDS011;17111;52.130;5.028;2023-03-07T15:23:19;1.95;;;0.60;;
30301;SDS011;17111;52.130;5.028;2023-03-07T15:26:05;1.02;;;0.80;;
30301;SDS011;17111;52.130;5.028;2023-03-07T15:28:37;1.73;;;0.70;;
30301;SDS011;17111;52.130;5.028;2023-03-07T15:31:07;1.13;;;0.50;;
30301;SDS011;17111;52.130;5.028;2023-03-07T15:33:35;0.68;;;0.57;;
30301;SDS011;17111;52.130;5.028;2023-03-07T15:36:14;2.00;;;0.70;;
30301;SDS011;17111;52.130;5.028;2023-03-07T15:38:47;1.65;;;0.60;;
30301;SDS011;17111;52.130;5.028;2023-03-07T15:41:34;1.00;;;0.50;;
30301;SDS011;17111;52.130;5.028;2023-03-07T15:44:13;0.57;;;0.50;;
30301;SDS011;17111;52.130;5.028;2023-03-07T15:46:46;0.65;;;0.65;;
30301;SDS011;17111;52.130;5.028;2023-03-07T15:49:16;2.53;;;0.63;;
30301;SDS011;17111;52.130;5.028;2023-03-07T15:51:45;2.28;;;1.20;;
30301;SDS011;17111;52.130;5.028;2023-03-07T15:57:05;2.53;;;1.33;;
30301;SDS011;17111;52.130;5.028;2023-03-07T15:59:46;4.90;;;1.50;;
30301;SDS011;17111;52.130;5.028;2023-03-07T16:07:26;3.13;;;1.85;;
30301;SDS011;17111;52.130;5.028;2023-03-07T16:09:53;3.17;;;1.77;;
30301;SDS011;17111;52.130;5.028;2023-03-07T16:12:20;4.28;;;1.80;;
30301;SDS011;17111;52.130;5.028;2023-03-07T16:14:49;5.95;;;2.20;;
30301;SDS011;17111;52.130;5.028;2023-03-07T16:17:18;3.60;;;2.15;;
30301;SDS011;17111;52.130;5.028;2023-03-07T16:19:48;4.63;;;2.50;;
30301;SDS011;17111;52.130;5.028;2023-03-07T16:22:16;4.57;;;2.50;;
30301;SDS011;17111;52.130;5.028;2023-03-07T16:24:43;7.50;;;3.30;;
30301;SDS011;17111;52.130;5.028;2023-03-07T16:27:21;7.28;;;3.47;;
30301;SDS011;17111;52.130;5.028;2023-03-07T16:29:48;6.72;;;3.38;;
30301;SDS011;17111;52.130;5.028;2023-03-07T16:32:17;9.57;;;4.05;;
30301;SDS011;17111;52.130;5.028;2023-03-07T16:34:45;9.02;;;4.05;;
30301;SDS011;17111;52.130;5.028;2023-03-07T16:37:13;8.38;;;3.97;;
30301;SDS011;17111;52.130;5.028;2023-03-07T16:39:40;12.85;;;5.35;;
30301;SDS011;17111;52.130;5.028;2023-03-07T16:42:09;6.90;;;4.13;;
30301;SDS011;17111;52.130;5.028;2023-03-07T16:44:43;10.85;;;4.63;;
30301;SDS011;17111;52.130;5.028;2023-03-07T16:47:14;8.75;;;4.38;;
30301;SDS011;17111;52.130;5.028;2023-03-07T16:49:42;11.93;;;5.20;;
30301;SDS011;17111;52.130;5.028;2023-03-07T16:52:12;9.32;;;4.63;;
30301;SDS011;17111;52.130;5.028;2023-03-07T16:54:39;14.43;;;4.80;;
30301;SDS011;17111;52.130;5.028;2023-03-07T16:57:06;9.65;;;5.18;;
30301;SDS011;17111;52.130;5.028;2023-03-07T16:59:38;11.80;;;5.28;;
30301;SDS011;17111;52.130;5.028;2023-03-07T17:02:27;10.90;;;5.32;;
30301;SDS011;17111;52.130;5.028;2023-03-07T17:04:54;11.38;;;6.13;;
30301;SDS011;17111;52.130;5.028;2023-03-07T17:07:21;19.23;;;7.32;;
30301;SDS011;17111;52.130;5.028;2023-03-07T17:09:48;12.85;;;7.18;;
30301;SDS011;17111;52.130;5.028;2023-03-07T17:12:23;14.40;;;7.63;;
30301;SDS011;17111;52.130;5.028;2023-03-07T17:14:50;15.15;;;7.72;;
30301;SDS011;17111;52.130;5.028;2023-03-07T17:17:18;15.85;;;8.80;;
30301;SDS011;17111;52.130;5.028;2023-03-07T17:19:50;14.93;;;8.02;;
30301;SDS011;17111;52.130;5.028;2023-03-07T17:22:16;18.83;;;9.63;;
30301;SDS011;17111;52.130;5.028;2023-03-07T17:24:45;17.50;;;9.70;;
30301;SDS011;17111;52.130;5.028;2023-03-07T17:27:11;17.75;;;9.27;;